Time;durP1;ratioP1;P1;durP2;ratioP2;P2;SDS_P1;SDS_P2;PMS_P1;PMS_P2;Temp;Humidity;BMP_temperature;BMP_pressure;BME280_temperature;BME280_humidity;BME280_pressure;Samples;Min_cycle;Max_cycle;Signal;HPM_P1;HPM_P2
2022/04/14 00:00:06;;;;;;;4.13;2.10;;;9.30;99.90;;;;;;5054548;28;20025;-80
2022/04/14 00:02:32;;;;;;;3.13;1.90;;;9.30;99.90;;;;;;5054332;28;20546;-80
2022/04/14 00:04:58;;;;;;;3.72;1.83;;;9.30;99.90;;;;;;5054490;28;20059;-80
2022/04/14 00:07:23;;;;;;;5.63;1.73;;;9.30;99.90;;;;;;5054860;28;20055;-80
2022/04/14 00:09:49;;;;;;;4.15;1.70;;;9.20;99.90;;;;;;5052678;28;20028;-80
2022/04/14 00:12:15;;;;;;;2.97;1.58;;;9.20;99.90;;;;;;5054374;28;20413;-80
2022/04/14 00:14:40;;;;;;;2.40;1.50;;;9.10;99.90;;;;;;5056056;28;20021;-80
2022/04/14 00:17:06;;;;;;;4.55;2.00;;;9.10;99.90;;;;;;5060964;28;20048;-80
2022/04/14 00:19:32;;;;;;;3.63;1.90;;;9.00;99.90;;;;;;5061097;28;20028;-79
2022/04/14 00:21:57;;;;;;;3.58;1.80;;;8.90;99.90;;;;;;5059723;28;20024;-80
2022/04/14 00:24:23;;;;;;;4.35;2.28;;;8.80;99.90;;;;;;5059200;28;20437;-80
2022/04/14 00:26:49;;;;;;;5.13;2.17;;;8.80;99.90;;;;;;5061063;28;20071;-80
2022/04/14 00:29:14;;;;;;;4.80;2.47;;;8.70;99.90;;;;;;5060921;28;20029;-80
2022/04/14 00:31:40;;;;;;;5.60;2.17;;;8.80;99.90;;;;;;5061143;28;20064;-80
2022/04/14 00:34:06;;;;;;;4.28;2.00;;;8.80;99.90;;;;;;5060623;28;20088;-80
2022/04/14 00:36:34;;;;;;;2.72;1.70;;;8.80;99.90;;;;;;5060786;28;20017;-80
2022/04/14 00:39:00;;;;;;;3.55;1.75;;;8.80;99.90;;;;;;5060506;28;20392;-80
2022/04/14 00:41:27;;;;;;;3.17;1.80;;;8.70;99.90;;;;;;5060854;28;20033;-79
2022/04/14 00:43:53;;;;;;;2.47;1.30;;;8.70;99.90;;;;;;5061141;28;20017;-79
2022/04/14 00:46:19;;;;;;;3.00;1.50;;;8.70;99.90;;;;;;5060685;28;20048;-80
2022/04/14 00:48:46;;;;;;;4.00;1.60;;;8.70;99.90;;;;;;5060701;28;20025;-80
2022/04/14 00:51:12;;;;;;;2.80;1.60;;;8.60;99.90;;;;;;5059393;28;20058;-79
2022/04/14 00:53:39;;;;;;;3.42;1.60;;;8.60;99.90;;;;;;5060705;28;20025;-79
2022/04/14 00:56:06;;;;;;;6.05;1.77;;;8.50;99.90;;;;;;5060993;28;20047;-80
2022/04/14 00:58:36;;;;;;;4.05;1.73;;;8.50;99.90;;;;;;5060631;28;20025;-80
2022/04/14 01:01:05;;;;;;;3.65;1.60;;;8.50;99.90;;;;;;5060480;28;20044;-80
2022/04/14 01:03:32;;;;;;;5.90;1.92;;;8.50;99.90;;;;;;5060768;28;20462;-80
2022/04/14 01:05:58;;;;;;;2.90;1.70;;;8.50;99.90;;;;;;5062631;28;20457;-80
2022/04/14 01:08:27;;;;;;;3.13;1.70;;;8.40;99.90;;;;;;5063203;28;20052;-80
2022/04/14 01:10:54;;;;;;;2.65;1.60;;;8.40;99.90;;;;;;5061511;28;20193;-80
2022/04/14 01:13:21;;;;;;;3.30;1.73;;;8.40;99.90;;;;;;5060638;28;20021;-80
2022/04/14 01:15:48;;;;;;;3.65;1.63;;;8.20;99.90;;;;;;5060548;28;20515;-80
2022/04/14 01:18:14;;;;;;;3.95;1.83;;;8.00;99.90;;;;;;5060835;28;20389;-80
2022/04/14 01:20:42;;;;;;;4.05;1.90;;;7.80;99.90;;;;;;5061119;28;20025;-80
2022/04/14 01:23:10;;;;;;;3.83;1.63;;;7.70;99.90;;;;;;5061078;28;20025;-80
2022/04/14 01:25:36;;;;;;;3.63;1.75;;;7.70;99.90;;;;;;5060518;28;20112;-79
2022/04/14 01:28:03;;;;;;;2.63;1.70;;;7.70;99.90;;;;;;5056902;28;20029;-79
2022/04/14 01:30:30;;;;;;;3.25;1.50;;;7.70;99.90;;;;;;5057857;28;20539;-79
2022/04/14 01:32:56;;;;;;;2.67;1.73;;;7.70;99.90;;;;;;5057517;28;20033;-79
2022/04/14 01:35:22;;;;;;;3.58;1.52;;;7.60;99.90;;;;;;5056148;28;20032;-79
2022/04/14 01:37:48;;;;;;;2.47;1.55;;;7.60;99.90;;;;;;5055873;28;20017;-79
2022/04/14 01:40:14;;;;;;;3.05;1.75;;;7.60;99.90;;;;;;5057214;28;20041;-79
2022/04/14 01:42:40;;;;;;;4.30;1.77;;;7.60;99.90;;;;;;5057353;28;20037;-79
2022/04/14 01:45:09;;;;;;;3.28;1.50;;;7.60;99.90;;;;;;5057414;28;20052;-79
2022/04/14 01:47:42;;;;;;;3.03;1.58;;;7.60;99.90;;;;;;5057553;28;20499;-79
2022/04/14 01:50:09;;;;;;;4.60;1.52;;;7.60;99.90;;;;;;5057619;28;20025;-79
2022/04/14 01:52:36;;;;;;;2.30;1.35;;;7.60;99.90;;;;;;5057444;28;20427;-79
2022/04/14 01:55:03;;;;;;;3.38;1.42;;;7.60;99.90;;;;;;5057610;28;20022;-79
2022/04/14 01:57:29;;;;;;;2.85;1.58;;;7.60;99.90;;;;;;5057371;28;20032;-79
2022/04/14 01:59:56;;;;;;;3.67;1.70;;;7.60;99.90;;;;;;5056423;28;20053;-79
2022/04/14 02:02:22;;;;;;;2.47;1.50;;;7.60;99.90;;;;;;5056660;28;20021;-79
2022/04/14 02:04:48;;;;;;;4.80;1.52;;;7.60;99.90;;;;;;5056829;28;20021;-79
2022/04/14 02:07:14;;;;;;;3.80;1.63;;;7.60;99.90;;;;;;5057650;28;20028;-79
2022/04/14 02:09:39;;;;;;;2.53;1.30;;;7.50;99.90;;;;;;5057776;28;20025;-79
2022/04/14 02:12:05;;;;;;;2.60;1.58;;;7.50;99.90;;;;;;5055514;28;20047;-79
2022/04/14 02:14:31;;;;;;;4.97;1.40;;;7.50;99.90;;;;;;5056897;28;20025;-79
2022/04/14 02:16:57;;;;;;;5.30;1.40;;;7.40;99.90;;;;;;5056450;28;20028;-79
2022/04/14 02:19:22;;;;;;;5.07;1.63;;;7.40;99.90;;;;;;5055895;28;20120;-79
2022/04/14 02:21:48;;;;;;;2.78;1.35;;;7.40;99.90;;;;;;5054895;28;20040;-79
2022/04/14 02:24:14;;;;;;;3.05;1.42;;;7.40;99.90;;;;;;5056128;28;20029;-79
2022/04/14 02:26:39;;;;;;;3.03;1.35;;;7.30;99.90;;;;;;5057855;28;20385;-79
2022/04/14 02:29:05;;;;;;;2.38;1.20;;;7.30;99.90;;;;;;5057608;28;20025;-79
2022/04/14 02:31:31;;;;;;;2.25;1.33;;;7.30;99.90;;;;;;5057346;28;20147;-79
2022/04/14 02:33:57;;;;;;;5.35;1.40;;;7.30;99.90;;;;;;5056267;28;20491;-79
2022/04/14 02:36:23;;;;;;;2.25;1.48;;;7.30;99.90;;;;;;5057885;28;20027;-79
2022/04/14 02:38:49;;;;;;;2.58;1.50;;;7.20;99.90;;;;;;5057066;28;20048;-80
2022/04/14 02:41:15;;;;;;;2.95;1.60;;;7.20;99.90;;;;;;5057651;28;20021;-80
2022/04/14 02:43:41;;;;;;;2.38;1.23;;;7.20;99.90;;;;;;5057540;28;20027;-80
2022/04/14 02:46:06;;;;;;;3.83;1.38;;;7.20;99.90;;;;;;5056492;28;20035;-80
2022/04/14 02:48:32;;;;;;;2.92;1.50;;;7.10;99.90;;;;;;5056378;28;20477;-80
2022/04/14 02:50:58;;;;;;;4.35;1.40;;;7.10;99.90;;;;;;5056597;28;20100;-80
2022/04/14 02:53:24;;;;;;;2.83;1.30;;;7.10;99.90;;;;;;5055624;28;20017;-80
2022/04/14 02:55:50;;;;;;;2.65;1.60;;;7.10;99.90;;;;;;5055822;28;20035;-80
2022/04/14 02:58:16;;;;;;;2.63;1.42;;;7.00;99.90;;;;;;5056082;28;20025;-80
2022/04/14 03:00:41;;;;;;;2.42;1.30;;;6.80;99.90;;;;;;5055919;28;20029;-79
2022/04/14 03:03:07;;;;;;;2.53;1.48;;;6.80;99.90;;;;;;5055697;28;20026;-79
2022/04/14 03:05:33;;;;;;;2.47;1.30;;;6.70;99.90;;;;;;5055700;28;20142;-79
2022/04/14 03:07:59;;;;;;;3.78;1.50;;;6.60;99.90;;;;;;5055860;28;20155;-79
2022/04/14 03:10:25;;;;;;;2.88;1.63;;;6.50;99.90;;;;;;5056063;28;20039;-80
2022/04/14 03:12:51;;;;;;;4.18;1.52;;;6.50;99.90;;;;;;5055702;28;20025;-79
2022/04/14 03:15:17;;;;;;;3.88;2.10;;;6.50;99.90;;;;;;5055292;28;20108;-79
2022/04/14 03:17:43;;;;;;;3.15;1.92;;;6.40;99.90;;;;;;5055931;28;20104;-80
2022/04/14 03:20:10;;;;;;;2.70;1.80;;;6.20;99.90;;;;;;5055715;28;20512;-79
2022/04/14 03:22:36;;;;;;;3.53;2.03;;;6.20;99.90;;;;;;5055365;28;20470;-79
2022/04/14 03:25:07;;;;;;;3.63;2.38;;;6.20;99.90;;;;;;5055093;28;20381;-79
2022/04/14 03:27:34;;;;;;;3.50;2.40;;;6.20;99.90;;;;;;5055180;28;20036;-79
2022/04/14 03:30:00;;;;;;;4.78;2.70;;;6.20;99.90;;;;;;5053663;28;20029;-79
2022/04/14 03:32:26;;;;;;;2.78;1.80;;;6.20;99.90;;;;;;5055111;28;20017;-79
2022/04/14 03:34:52;;;;;;;3.03;2.00;;;6.20;99.90;;;;;;5055016;28;20464;-79
2022/04/14 03:37:18;;;;;;;4.93;1.92;;;6.20;99.90;;;;;;5054925;28;20359;-79
2022/04/14 03:39:44;;;;;;;3.10;1.52;;;6.20;99.90;;;;;;5055136;28;20055;-79
2022/04/14 03:42:09;;;;;;;3.03;1.70;;;6.20;99.90;;;;;;5054264;28;20025;-79
2022/04/14 03:44:35;;;;;;;2.35;1.35;;;6.20;99.90;;;;;;5054281;28;20477;-79
2022/04/14 03:47:00;;;;;;;3.13;1.50;;;6.20;99.90;;;;;;5056392;28;20036;-79
2022/04/14 03:49:26;;;;;;;3.60;1.65;;;6.20;99.90;;;;;;5056968;28;20029;-80
2022/04/14 03:51:54;;;;;;;7.05;1.90;;;6.20;99.90;;;;;;5056651;28;20025;-79
2022/04/14 03:54:20;;;;;;;2.78;1.73;;;6.20;99.90;;;;;;5053361;28;20032;-79
2022/04/14 03:56:47;;;;;;;3.63;1.73;;;6.20;99.90;;;;;;5054973;28;20024;-79
2022/04/14 03:59:13;;;;;;;3.25;1.70;;;6.20;99.90;;;;;;5054709;28;20021;-79
2022/04/14 04:01:39;;;;;;;3.22;1.40;;;6.10;99.90;;;;;;5054663;28;20361;-79
2022/04/14 04:04:05;;;;;;;4.65;2.13;;;6.10;99.90;;;;;;5054461;28;20028;-79
2022/04/14 04:06:31;;;;;;;3.28;2.10;;;6.10;99.90;;;;;;5055384;28;20029;-79
2022/04/14 04:08:57;;;;;;;3.25;2.00;;;6.00;99.90;;;;;;5054446;28;20085;-79
2022/04/14 04:11:23;;;;;;;4.15;2.25;;;6.00;99.90;;;;;;5055179;28;20233;-79
2022/04/14 04:13:48;;;;;;;4.40;2.40;;;6.00;99.90;;;;;;5054652;28;20032;-79
2022/04/14 04:16:14;;;;;;;4.00;2.63;;;6.00;99.90;;;;;;5054653;28;20021;-79
2022/04/14 04:18:40;;;;;;;7.38;4.40;;;5.90;99.90;;;;;;5054911;28;20085;-79
2022/04/14 04:21:05;;;;;;;13.68;8.43;;;5.90;99.90;;;;;;5053994;28;20116;-79
2022/04/14 04:23:31;;;;;;;19.75;11.13;;;5.90;99.90;;;;;;5053784;28;20100;-79
2022/04/14 04:25:57;;;;;;;12.40;7.20;;;5.90;99.90;;;;;;5055443;28;20029;-79
2022/04/14 04:28:22;;;;;;;8.52;5.30;;;5.90;99.90;;;;;;5055200;28;20058;-79
2022/04/14 04:30:48;;;;;;;9.27;4.97;;;5.80;99.90;;;;;;5054458;28;20065;-79
2022/04/14 04:33:14;;;;;;;12.05;6.03;;;5.80;99.90;;;;;;5054933;28;20036;-78
2022/04/14 04:35:40;;;;;;;9.02;4.35;;;5.70;99.90;;;;;;5055106;28;20025;-78
2022/04/14 04:38:05;;;;;;;4.10;2.40;;;5.60;99.90;;;;;;5054602;28;20028;-79
2022/04/14 04:40:31;;;;;;;6.38;2.90;;;5.60;99.90;;;;;;5054558;28;20485;-79
2022/04/14 04:42:58;;;;;;;4.93;1.90;;;5.60;99.90;;;;;;5054894;28;20072;-79
2022/04/14 04:45:24;;;;;;;3.83;1.50;;;5.60;99.90;;;;;;5055172;28;20468;-79
2022/04/14 04:47:50;;;;;;;4.63;1.75;;;5.60;99.90;;;;;;5054912;28;20025;-79
2022/04/14 04:50:15;;;;;;;3.40;1.77;;;5.60;99.90;;;;;;5054077;28;20029;-78
2022/04/14 04:52:41;;;;;;;17.73;9.43;;;5.60;99.90;;;;;;5054403;28;20029;-78
2022/04/14 04:55:07;;;;;;;26.75;14.15;;;5.50;99.90;;;;;;5056631;28;20025;-78
2022/04/14 04:57:33;;;;;;;17.70;9.57;;;5.40;99.90;;;;;;5055589;28;20029;-79
2022/04/14 04:59:58;;;;;;;8.73;5.25;;;5.40;99.90;;;;;;5055143;28;20021;-79
2022/04/14 05:02:24;;;;;;;7.55;4.45;;;5.40;99.90;;;;;;5056357;28;20079;-79
2022/04/14 05:04:50;;;;;;;8.35;5.15;;;5.40;99.90;;;;;;5057619;28;20025;-79
2022/04/14 05:07:16;;;;;;;8.55;4.88;;;5.40;99.90;;;;;;5058635;28;20167;-79
2022/04/14 05:09:42;;;;;;;7.28;4.38;;;5.40;99.90;;;;;;5058396;28;20025;-78
2022/04/14 05:12:08;;;;;;;6.82;3.42;;;5.50;99.90;;;;;;5058264;28;20021;-78
2022/04/14 05:14:33;;;;;;;3.70;2.53;;;5.50;99.90;;;;;;5057040;28;20029;-78
2022/04/14 05:16:59;;;;;;;3.50;2.15;;;5.50;99.90;;;;;;5058247;28;20545;-78
2022/04/14 05:19:25;;;;;;;3.20;1.83;;;5.40;99.90;;;;;;5057757;28;20489;-78
2022/04/14 05:21:50;;;;;;;3.13;1.70;;;5.40;99.90;;;;;;5057257;28;20467;-78
2022/04/14 05:24:16;;;;;;;2.95;1.88;;;5.40;99.90;;;;;;5057896;28;20033;-78
2022/04/14 05:26:42;;;;;;;5.32;2.20;;;5.40;99.90;;;;;;5058097;28;20089;-78
2022/04/14 05:29:09;;;;;;;5.55;2.75;;;5.40;99.90;;;;;;5056681;28;20025;-78
2022/04/14 05:31:35;;;;;;;4.20;2.25;;;5.40;99.90;;;;;;5057667;28;20035;-78
2022/04/14 05:34:01;;;;;;;4.45;2.35;;;5.40;99.90;;;;;;5057692;28;20108;-78
2022/04/14 05:36:26;;;;;;;5.68;2.08;;;5.30;99.90;;;;;;5057858;28;20028;-78
2022/04/14 05:38:52;;;;;;;2.90;2.00;;;5.30;99.90;;;;;;5057427;28;20119;-78
2022/04/14 05:41:18;;;;;;;4.60;2.40;;;5.40;99.90;;;;;;5057780;28;20067;-78
2022/04/14 05:43:43;;;;;;;3.88;2.05;;;5.40;99.90;;;;;;5057770;28;20116;-78
2022/04/14 05:46:09;;;;;;;5.63;2.47;;;5.50;99.90;;;;;;5057725;28;20025;-78
2022/04/14 05:48:35;;;;;;;3.67;2.10;;;5.50;99.90;;;;;;5057817;28;20412;-78
2022/04/14 05:51:00;;;;;;;4.90;2.20;;;5.60;99.90;;;;;;5057313;28;20118;-78
2022/04/14 05:53:27;;;;;;;7.28;2.95;;;5.60;99.90;;;;;;5057461;28;20063;-78
2022/04/14 05:55:53;;;;;;;8.13;5.00;;;5.70;99.90;;;;;;5057435;28;20025;-78
2022/04/14 05:58:19;;;;;;;10.32;4.93;;;5.70;99.90;;;;;;5057796;28;20365;-78
2022/04/14 06:00:44;;;;;;;6.38;2.90;;;5.80;99.90;;;;;;5057064;28;20029;-78
2022/04/14 06:03:11;;;;;;;6.05;2.28;;;5.90;99.90;;;;;;5056089;28;20460;-78
2022/04/14 06:05:37;;;;;;;9.50;2.80;;;5.90;99.90;;;;;;5057264;28;20029;-78
2022/04/14 06:08:03;;;;;;;3.65;2.30;;;6.00;99.90;;;;;;5057191;28;20053;-78
2022/04/14 06:10:29;;;;;;;7.85;3.03;;;6.00;99.90;;;;;;5055737;28;20029;-78
2022/04/14 06:12:55;;;;;;;4.20;2.30;;;6.10;99.90;;;;;;5056959;28;20076;-78
2022/04/14 06:15:21;;;;;;;7.32;3.33;;;6.10;99.90;;;;;;5055485;28;20112;-78
2022/04/14 06:17:47;;;;;;;7.18;3.08;;;6.20;99.90;;;;;;5057029;28;20032;-78
2022/04/14 06:20:14;;;;;;;8.77;3.72;;;6.30;99.90;;;;;;5057138;28;20021;-78
2022/04/14 06:22:44;;;;;;;12.88;3.80;;;6.30;99.90;;;;;;5056776;28;20029;-78
2022/04/14 06:25:16;;;;;;;11.63;3.50;;;6.40;99.90;;;;;;5056960;28;20032;-78
2022/04/14 06:27:46;;;;;;;9.07;3.13;;;6.40;99.90;;;;;;5057160;28;20055;-78
2022/04/14 06:30:14;;;;;;;6.82;2.83;;;6.50;99.90;;;;;;5056888;28;20458;-78
2022/04/14 06:32:39;;;;;;;5.72;2.63;;;6.60;99.90;;;;;;5057161;28;20021;-78
2022/04/14 06:35:07;;;;;;;8.27;3.47;;;6.60;99.90;;;;;;5055397;28;20028;-78
2022/04/14 06:37:36;;;;;;;8.02;3.33;;;6.70;99.90;;;;;;5056414;28;20457;-78
2022/04/14 06:40:04;;;;;;;9.70;3.30;;;6.80;99.90;;;;;;5056422;28;20032;-78
2022/04/14 06:42:30;;;;;;;6.85;2.95;;;6.90;99.90;;;;;;5056436;28;20017;-78
2022/04/14 06:44:59;;;;;;;7.35;3.03;;;7.00;99.90;;;;;;5056337;28;20076;-78
2022/04/14 06:47:26;;;;;;;5.75;2.80;;;7.10;99.90;;;;;;5055432;28;20025;-78
2022/04/14 06:49:52;;;;;;;6.55;2.78;;;7.20;99.90;;;;;;5056599;28;20078;-78
2022/04/14 06:52:18;;;;;;;10.50;3.40;;;7.30;99.90;;;;;;5056106;28;20021;-78
2022/04/14 06:54:44;;;;;;;13.02;2.80;;;7.40;99.90;;;;;;5055900;28;20071;-78
2022/04/14 06:57:09;;;;;;;9.00;3.00;;;7.50;99.90;;;;;;5056444;28;20139;-78
2022/04/14 06:59:35;;;;;;;9.77;3.40;;;7.70;99.90;;;;;;5054975;28;20371;-78
2022/04/14 07:02:01;;;;;;;5.65;3.13;;;7.90;99.90;;;;;;5055826;28;20098;-78
2022/04/14 07:04:27;;;;;;;5.80;3.20;;;8.00;99.90;;;;;;5056329;28;20032;-78
2022/04/14 07:06:54;;;;;;;11.60;3.63;;;8.20;99.90;;;;;;5056016;28;20024;-78
2022/04/14 07:09:20;;;;;;;8.75;3.38;;;8.30;99.90;;;;;;5056067;28;20083;-78
2022/04/14 07:11:46;;;;;;;6.43;3.85;;;8.50;99.90;;;;;;5055792;28;20087;-78
2022/04/14 07:14:14;;;;;;;6.38;3.58;;;8.70;99.90;;;;;;5054291;28;20075;-79
2022/04/14 07:16:41;;;;;;;5.75;3.10;;;9.00;99.90;;;;;;5054258;28;20017;-79
2022/04/14 07:19:06;;;;;;;7.10;3.58;;;9.20;99.90;;;;;;5054616;28;20354;-79
2022/04/14 07:21:32;;;;;;;7.10;3.08;;;9.40;99.90;;;;;;5054662;28;20109;-79
2022/04/14 07:23:58;;;;;;;6.18;3.15;;;9.60;99.90;;;;;;5054110;28;20074;-79
2022/04/14 07:26:23;;;;;;;5.80;3.38;;;9.70;99.90;;;;;;5053808;28;20033;-79
2022/04/14 07:28:49;;;;;;;4.28;2.78;;;10.00;99.90;;;;;;5054362;28;20435;-79
2022/04/14 07:31:16;;;;;;;8.13;3.45;;;10.20;99.90;;;;;;5054344;28;20078;-79
2022/04/14 07:33:42;;;;;;;10.68;4.95;;;10.30;99.90;;;;;;5053873;28;20028;-79
2022/04/14 07:36:08;;;;;;;7.55;4.63;;;10.60;99.90;;;;;;5054018;28;20435;-79
2022/04/14 07:38:34;;;;;;;9.48;7.22;;;10.80;99.90;;;;;;5053852;28;20025;-79
2022/04/14 07:41:05;;;;;;;16.52;11.77;;;10.90;99.90;;;;;;5054329;28;20377;-79
2022/04/14 07:43:32;;;;;;;38.05;22.83;;;11.10;99.90;;;;;;5052774;28;20032;-79
2022/04/14 07:45:57;;;;;;;36.25;23.48;;;11.30;99.90;;;;;;5053712;28;20040;-79
2022/04/14 07:48:23;;;;;;;41.70;29.00;;;11.40;99.90;;;;;;5054037;28;20416;-79
2022/04/14 07:50:49;;;;;;;37.08;26.13;;;11.50;99.80;;;;;;5052618;28;20104;-79
2022/04/14 07:53:15;;;;;;;37.05;25.67;;;11.70;99.50;;;;;;5054085;28;20025;-79
2022/04/14 07:55:41;;;;;;;37.15;25.73;;;11.80;98.90;;;;;;5054026;28;20071;-79
2022/04/14 07:58:07;;;;;;;36.20;24.80;;;11.90;98.00;;;;;;5054018;28;20029;-79
2022/04/14 08:00:34;;;;;;;37.42;25.15;;;12.10;97.80;;;;;;5053682;28;20366;-79
2022/04/14 08:03:01;;;;;;;37.80;27.17;;;12.20;97.30;;;;;;5053936;28;20385;-79
2022/04/14 08:05:29;;;;;;;40.55;30.55;;;12.40;97.00;;;;;;5053643;28;20029;-79
2022/04/14 08:07:55;;;;;;;46.20;33.38;;;12.50;96.90;;;;;;5039147;28;20022;-80
2022/04/14 08:10:21;;;;;;;65.38;35.13;;;12.60;96.50;;;;;;5044566;28;20040;-79
2022/04/14 08:12:47;;;;;;;44.35;31.77;;;12.80;96.60;;;;;;5051707;28;20028;-79
2022/04/14 08:15:14;;;;;;;36.45;26.27;;;13.00;95.70;;;;;;5052341;28;20139;-79
2022/04/14 08:17:44;;;;;;;28.92;21.60;;;13.20;94.60;;;;;;5053718;28;20032;-79
2022/04/14 08:20:11;;;;;;;31.00;20.85;;;13.30;93.30;;;;;;5053913;28;20583;-79
2022/04/14 08:23:03;;;;;;;26.00;19.75;;;13.40;92.70;;;;;;5053434;28;20029;-79
2022/04/14 08:25:34;;;;;;;23.27;16.88;;;13.60;92.00;;;;;;5050335;28;20033;-79
2022/04/14 08:28:01;;;;;;;23.20;17.33;;;13.70;92.00;;;;;;5053802;28;20480;-79
2022/04/14 08:30:29;;;;;;;18.10;13.55;;;13.90;93.60;;;;;;5052688;28;20544;-79
2022/04/14 08:32:57;;;;;;;16.73;11.70;;;14.10;91.80;;;;;;5053495;28;20016;-79
2022/04/14 08:35:25;;;;;;;16.98;11.52;;;14.20;90.60;;;;;;5054253;28;20111;-79
2022/04/14 08:37:50;;;;;;;15.30;10.05;;;14.40;90.60;;;;;;5057750;28;20017;-79
2022/04/14 08:40:21;;;;;;;12.25;8.40;;;14.50;91.50;;;;;;5057340;28;20106;-79
2022/04/14 08:43:03;;;;;;;13.00;9.17;;;14.70;87.90;;;;;;5057712;28;20025;-79
2022/04/14 08:45:34;;;;;;;15.00;8.77;;;14.90;87.00;;;;;;5057381;28;20108;-79
2022/04/14 08:48:01;;;;;;;10.98;8.40;;;15.00;87.60;;;;;;5057559;28;20049;-79
2022/04/14 08:50:27;;;;;;;11.02;7.32;;;15.20;88.30;;;;;;5057125;28;20035;-79
2022/04/14 08:52:53;;;;;;;11.82;7.40;;;15.40;89.10;;;;;;5057501;28;20021;-79
2022/04/14 08:55:20;;;;;;;10.30;5.80;;;15.60;86.40;;;;;;5057402;28;20100;-79
2022/04/14 08:57:47;;;;;;;12.15;5.90;;;15.70;84.00;;;;;;5057235;28;20043;-79
2022/04/14 09:00:16;;;;;;;7.80;5.63;;;15.80;83.10;;;;;;5057769;28;20070;-79
2022/04/14 09:02:45;;;;;;;7.75;4.68;;;16.00;82.30;;;;;;5055940;28;20025;-79
2022/04/14 09:05:17;;;;;;;7.95;4.85;;;16.10;80.80;;;;;;5056981;28;20354;-79
2022/04/14 09:07:50;;;;;;;9.13;4.22;;;16.30;80.70;;;;;;5057347;28;20032;-79
2022/04/14 09:10:16;;;;;;;5.85;4.00;;;16.40;81.00;;;;;;5057448;28;20096;-79
2022/04/14 09:12:41;;;;;;;5.80;4.30;;;16.50;81.50;;;;;;5056400;28;20110;-79
2022/04/14 09:15:08;;;;;;;11.00;4.32;;;16.60;77.30;;;;;;5056026;28;20025;-79
2022/04/14 09:17:34;;;;;;;5.95;4.20;;;16.80;78.20;;;;;;5057248;28;20021;-79
2022/04/14 09:19:59;;;;;;;6.35;4.18;;;16.90;76.50;;;;;;5057079;28;20461;-79
2022/04/14 09:22:25;;;;;;;6.78;3.90;;;17.00;76.00;;;;;;5056606;28;20021;-79
2022/04/14 09:24:57;;;;;;;7.65;3.95;;;17.10;74.80;;;;;;5056770;28;20119;-79
2022/04/14 09:27:31;;;;;;;8.55;3.95;;;17.20;74.20;;;;;;5056515;28;20075;-79
2022/04/14 09:29:59;;;;;;;6.05;3.42;;;17.40;73.60;;;;;;5057081;28;20021;-79
2022/04/14 09:32:44;;;;;;;7.03;3.40;;;17.50;71.40;;;;;;5056701;28;20067;-79
2022/04/14 09:35:21;;;;;;;8.02;3.40;;;17.70;70.30;;;;;;5056714;28;20021;-79
2022/04/14 09:38:03;;;;;;;4.78;3.58;;;17.90;69.30;;;;;;5056735;28;20056;-79
2022/04/14 09:40:33;;;;;;;7.07;3.50;;;18.10;71.70;;;;;;5055011;28;20029;-79
2022/04/14 09:42:59;;;;;;;5.07;2.97;;;18.20;70.00;;;;;;5056346;28;20021;-79
2022/04/14 09:45:29;;;;;;;5.68;3.00;;;18.40;68.20;;;;;;5055633;28;20017;-79
2022/04/14 09:48:10;;;;;;;6.40;3.30;;;18.50;69.60;;;;;;5056179;28;20017;-79
2022/04/14 09:50:43;;;;;;;8.35;2.85;;;18.70;70.90;;;;;;5056333;28;20033;-79
2022/04/14 09:53:19;;;;;;;9.05;2.75;;;18.80;66.80;;;;;;5056866;28;20473;-79
2022/04/14 09:56:05;;;;;;;4.95;2.25;;;19.00;65.60;;;;;;5056313;28;20087;-79
2022/04/14 09:58:31;;;;;;;3.50;1.73;;;19.10;65.00;;;;;;5056853;28;20083;-79
2022/04/14 10:00:58;;;;;;;4.07;2.17;;;19.30;64.20;;;;;;5056330;28;20031;-79
2022/04/14 10:03:29;;;;;;;4.50;2.10;;;19.40;62.30;;;;;;5056338;28;20040;-79
2022/04/14 10:05:56;;;;;;;;;;;19.60;62.80;;;;;;5056724;28;20031;-79
2022/04/14 10:08:25;;;;;;;4.00;2.00;;;19.70;61.90;;;;;;5058844;28;19959;-79
2022/04/14 10:11:05;;;;;;;4.15;2.00;;;19.80;61.60;;;;;;5055549;28;20082;-79
2022/04/14 10:13:36;;;;;;;4.93;2.10;;;20.00;64.40;;;;;;5057100;28;20068;-79
2022/04/14 10:16:02;;;;;;;4.45;2.30;;;20.10;60.00;;;;;;5057782;28;20064;-79
2022/04/14 10:18:30;;;;;;;4.97;2.08;;;20.20;59.40;;;;;;5056572;28;20465;-79
2022/04/14 10:20:57;;;;;;;4.95;1.80;;;20.20;59.50;;;;;;5055992;28;20017;-79
2022/04/14 10:23:22;;;;;;;5.80;2.20;;;20.30;59.30;;;;;;5055865;28;20017;-79
2022/04/14 10:25:50;;;;;;;5.13;2.10;;;20.40;58.60;;;;;;5055516;28;20579;-82
2022/04/14 10:28:17;;;;;;;3.45;2.20;;;20.50;58.40;;;;;;5054057;28;20052;-82
2022/04/14 10:30:55;;;;;;;5.97;2.20;;;20.50;57.40;;;;;;5055477;28;20029;-82
2022/04/14 10:33:22;;;;;;;4.07;2.25;;;20.60;59.70;;;;;;5055590;28;20017;-82
2022/04/14 10:35:48;;;;;;;7.47;2.47;;;20.70;57.20;;;;;;5055468;28;20044;-82
2022/04/14 10:38:29;;;;;;;5.35;2.40;;;20.80;58.60;;;;;;5053901;28;20021;-82
2022/04/14 10:41:01;;;;;;;6.45;2.20;;;20.80;57.10;;;;;;5055245;28;20033;-82
2022/04/14 10:43:28;;;;;;;5.32;2.20;;;20.70;56.40;;;;;;5055245;28;20025;-82
2022/04/14 10:45:56;;;;;;;6.20;1.80;;;20.60;57.80;;;;;;5053631;28;20090;-82
2022/04/14 10:48:28;;;;;;;2.92;1.63;;;20.70;57.40;;;;;;5055030;28;20079;-82
2022/04/14 10:51:17;;;;;;;3.75;1.90;;;20.80;56.90;;;;;;5055213;28;20021;-82
2022/04/14 10:53:49;;;;;;;5.65;1.98;;;20.90;56.00;;;;;;5053747;28;20481;-82
2022/04/14 10:56:33;;;;;;;3.72;2.17;;;21.10;57.40;;;;;;5055083;28;20474;-81
2022/04/14 10:59:00;;;;;;;2.83;1.90;;;21.20;57.30;;;;;;5056070;28;20388;-78
2022/04/14 11:04:43;;;;;;;5.35;2.30;;;21.40;55.40;;;;;;5055315;28;20032;-79
2022/04/14 11:07:14;;;;;;;4.60;2.22;;;21.50;55.50;;;;;;5054148;28;20485;-79
2022/04/14 11:09:43;;;;;;;4.30;2.38;;;21.60;55.50;;;;;;5054552;28;20434;-79
2022/04/14 11:12:10;;;;;;;4.90;2.30;;;21.70;55.10;;;;;;5055871;28;20104;-79
2022/04/14 11:14:42;;;;;;;4.10;2.00;;;21.90;54.90;;;;;;5055565;28;20460;-79
2022/04/14 11:17:30;;;;;;;4.85;2.25;;;22.00;54.80;;;;;;5055419;28;20039;-79
2022/04/14 11:20:15;;;;;;;6.55;2.35;;;22.10;53.60;;;;;;5055436;28;20032;-78
2022/04/14 11:23:07;;;;;;;4.38;2.35;;;22.10;54.40;;;;;;5054362;28;20025;-79
2022/04/14 11:25:42;;;;;;;6.18;2.28;;;22.20;53.00;;;;;;5054753;28;20424;-79
2022/04/14 11:28:28;;;;;;;2.90;1.88;;;22.30;52.50;;;;;;5055339;28;20017;-79
2022/04/14 11:30:56;;;;;;;6.82;2.42;;;22.30;52.20;;;;;;5055158;28;20032;-79
2022/04/14 11:33:31;;;;;;;7.82;2.28;;;22.40;54.00;;;;;;5055084;28;20017;-79
2022/04/14 11:36:16;;;;;;;5.97;2.20;;;22.40;53.80;;;;;;5056251;28;20102;-79
2022/04/14 11:39:05;;;;;;;6.75;1.92;;;22.60;54.30;;;;;;5057292;28;20032;-79
2022/04/14 11:41:42;;;;;;;5.40;2.30;;;22.90;53.20;;;;;;5057230;28;20469;-79
2022/04/14 11:44:16;;;;;;;6.65;2.65;;;23.10;51.80;;;;;;5057443;28;20032;-79
2022/04/14 11:46:50;;;;;;;5.50;2.30;;;23.10;53.70;;;;;;5054386;28;20222;-79
2022/04/14 11:49:24;;;;;;;5.30;2.10;;;23.20;52.30;;;;;;5054116;28;19931;-79
2022/04/14 11:51:59;;;;;;;;;;;23.20;49.80;;;;;;5056381;28;20036;-79
2022/04/14 11:54:30;;;;;;;;;;;23.30;49.60;;;;;;5054893;28;19912;-79
2022/04/14 11:57:00;;;;;;;;;;;23.20;48.80;;;;;;5055665;28;19904;-79
2022/04/14 11:59:29;;;;;;;;;;;23.20;49.70;;;;;;5055657;28;19926;-79
2022/04/14 12:01:57;;;;;;;;;;;23.20;51.10;;;;;;5054122;28;19912;-79
2022/04/14 12:04:23;;;;;;;;;;;23.30;52.70;;;;;;5055551;28;19904;-79
2022/04/14 12:06:53;;;;;;;;;;;23.50;49.70;;;;;;5055535;28;19912;-79
2022/04/14 12:09:19;;;;;;;;;;;23.60;49.80;;;;;;5055665;28;19932;-79
2022/04/14 12:11:45;;;;;;;;;;;23.70;49.80;;;;;;5054926;28;20280;-79
2022/04/14 12:14:11;;;;;;;;;;;23.80;51.30;;;;;;5055482;28;19905;-79
2022/04/14 12:16:36;;;;;;;;;;;23.90;48.40;;;;;;5057036;28;19905;-79
2022/04/14 12:19:05;;;;;;;;;;;23.90;49.20;;;;;;5054569;28;19905;-79
2022/04/14 12:21:30;;;;;;;;;;;23.90;49.40;;;;;;5057040;28;19905;-79
2022/04/14 12:23:58;;;;;;;;;;;23.90;50.40;;;;;;5056555;28;19911;-79
2022/04/14 12:26:26;;;;;;;;;;;24.10;50.10;;;;;;5057597;28;19909;-80
2022/04/14 12:28:52;;;;;;;;;;;24.30;47.80;;;;;;5054125;28;20046;-78
2022/04/14 12:31:17;;;;;;;;;;;24.30;47.80;;;;;;5055766;28;20021;-79
2022/04/14 12:33:58;;;;;;;;;;;24.50;47.70;;;;;;5055475;28;19908;-79
2022/04/14 12:36:34;;;;;;;;;;;24.60;48.90;;;;;;5053681;28;19972;-79
2022/04/14 12:39:02;;;;;;;;;;;24.50;48.30;;;;;;5056279;28;20121;-79
2022/04/14 12:41:32;;;;;;;;;;;24.40;48.30;;;;;;5057617;28;20425;-79
2022/04/14 12:43:58;;;;;;;;;;;24.30;47.70;;;;;;5054630;28;19951;-79
2022/04/14 12:46:27;;;;;;;;;;;24.30;48.30;;;;;;5053638;28;19998;-79
2022/04/14 12:48:59;;;;;;;;;;;24.30;48.20;;;;;;5054915;28;20352;-79
2022/04/14 12:51:28;;;;;;;;;;;24.30;47.20;;;;;;5055315;28;19912;-79
2022/04/14 12:53:54;;;;;;;;;;;24.30;47.00;;;;;;5055266;28;20408;-80
2022/04/14 12:56:20;;;;;;;;;;;24.40;47.90;;;;;;5055032;28;19905;-79
2022/04/14 12:59:04;;;;;;;;;;;24.30;48.20;;;;;;5056429;28;19958;-79
2022/04/14 13:01:43;;;;;;;;;;;24.20;48.20;;;;;;5055635;28;19905;-79
2022/04/14 13:04:11;;;;;;;;;;;24.10;49.00;;;;;;5055159;28;19905;-78